Terminal Aerodrome Forecast
Issued by NWS

Home | Current Version | Previous Version | Text Only | Print | Product List | Glossary On
Versions: 1 2 3 4 5 6 7 8 9 10
687
FTUS46 KSTO 240536
TAFRBL
TAF
KRBL 240536Z 2406/2506 17012KT P6SM -RA OVC060
      TEMPO 2412/2415 -RA OVC025
     FM241500 15013KT P6SM VCSH OVC020
      TEMPO 2415/2419 SCT020 BKN070
     FM250300 20007KT P6SM SCT030 OVC150=

USA.gov is the U.S. government's official web portal to all federal, state and local government web resources and services.